createdAt,value
2019-06-26T00:01:55.599Z,19.80
2019-06-26T00:04:27.443Z,19.76
2019-06-26T00:06:59.381Z,19.78
2019-06-26T00:09:31.216Z,19.78
2019-06-26T00:12:04.624Z,19.73
2019-06-26T00:14:38.721Z,19.67
2019-06-26T00:17:10.026Z,19.68
2019-06-26T00:19:41.846Z,19.60
2019-06-26T00:22:13.691Z,19.60
2019-06-26T00:24:45.622Z,19.55
2019-06-26T00:27:17.560Z,19.50
2019-06-26T00:29:49.466Z,19.49
2019-06-26T00:32:21.279Z,19.43
2019-06-26T00:34:54.124Z,19.34
2019-06-26T00:37:26.053Z,19.31
2019-06-26T00:39:57.897Z,19.26
2019-06-26T00:42:30.213Z,19.21
2019-06-26T00:45:02.131Z,19.19
2019-06-26T00:47:34.111Z,19.17
2019-06-26T00:50:09.134Z,19.11
2019-06-26T00:52:41.096Z,19.05
2019-06-26T00:55:12.926Z,18.99
2019-06-26T00:57:44.880Z,18.88
2019-06-26T01:00:16.793Z,18.84
2019-06-26T01:02:48.779Z,18.82
2019-06-26T01:05:20.596Z,18.82
2019-06-26T01:07:52.560Z,18.76
2019-06-26T01:10:24.456Z,18.73
2019-06-26T01:12:56.403Z,18.68
2019-06-26T01:15:28.220Z,18.67
2019-06-26T01:18:00.160Z,18.58
2019-06-26T01:20:31.987Z,18.58
2019-06-26T01:23:03.868Z,18.56
2019-06-26T01:25:35.861Z,18.47
2019-06-26T01:28:07.719Z,18.44
2019-06-26T01:30:39.758Z,18.44
2019-06-26T01:33:11.717Z,18.36
2019-06-26T01:35:45.623Z,18.32
2019-06-26T01:38:17.569Z,18.23
2019-06-26T01:40:49.477Z,18.19
2019-06-26T01:43:21.348Z,18.20
2019-06-26T01:45:53.290Z,18.13
2019-06-26T01:48:25.206Z,18.09
2019-06-26T01:50:57.037Z,18.08
2019-06-26T01:53:29.168Z,18.06
2019-06-26T01:56:01.302Z,17.99
2019-06-26T01:58:33.373Z,17.99
2019-06-26T02:01:05.410Z,17.97
2019-06-26T02:03:37.483Z,17.97
2019-06-26T02:06:09.492Z,17.94
2019-06-26T02:08:41.471Z,17.93
2019-06-26T02:11:13.508Z,17.96
2019-06-26T02:13:45.485Z,17.95
2019-06-26T02:16:17.460Z,17.95
2019-06-26T02:18:51.186Z,18.04
2019-06-26T02:21:23.209Z,18.02
2019-06-26T02:23:55.278Z,18.05
2019-06-26T02:26:27.339Z,18.11
2019-06-26T02:28:59.488Z,18.13
2019-06-26T02:31:31.424Z,18.14
2019-06-26T02:34:03.573Z,18.14
2019-06-26T02:36:35.680Z,18.15
2019-06-26T02:39:07.833Z,18.19
2019-06-26T02:41:39.938Z,18.24
2019-06-26T02:44:12.106Z,18.34
2019-06-26T02:46:44.217Z,18.43
2019-06-26T02:49:16.352Z,18.54
2019-06-26T02:51:48.273Z,18.65
2019-06-26T02:54:20.196Z,18.74
2019-06-26T02:56:52.016Z,18.95
2019-06-26T02:59:23.827Z,19.08
2019-06-26T03:01:55.710Z,19.19
2019-06-26T03:04:27.698Z,19.28
2019-06-26T03:06:59.615Z,19.41
2019-06-26T03:09:31.557Z,19.44
2019-06-26T03:12:03.457Z,19.57
2019-06-26T03:14:35.317Z,19.64
2019-06-26T03:17:07.248Z,19.73
2019-06-26T03:19:39.097Z,19.89
2019-06-26T03:22:10.935Z,19.99
2019-06-26T03:24:42.887Z,20.08
2019-06-26T03:27:14.705Z,20.12
2019-06-26T03:29:46.869Z,20.23
2019-06-26T03:32:18.653Z,20.36
2019-06-26T03:34:50.524Z,20.45
2019-06-26T03:37:23.395Z,20.53
2019-06-26T03:39:55.363Z,20.61
2019-06-26T03:42:27.287Z,20.64
2019-06-26T03:44:59.244Z,20.72
2019-06-26T03:47:31.146Z,20.80
2019-06-26T03:50:03.697Z,20.80
2019-06-26T03:52:35.593Z,20.92
2019-06-26T03:55:07.540Z,20.92
2019-06-26T03:57:39.552Z,20.98
2019-06-26T04:00:12.545Z,21.00
2019-06-26T04:02:44.489Z,21.10
2019-06-26T04:05:16.581Z,21.21
2019-06-26T04:07:48.471Z,21.34
2019-06-26T04:10:20.343Z,21.39
2019-06-26T04:12:52.320Z,21.53
2019-06-26T04:15:37.583Z,21.62
2019-06-26T04:17:57.956Z,21.70
2019-06-26T04:20:30.001Z,21.74
2019-06-26T04:23:01.832Z,21.89
2019-06-26T04:25:33.779Z,21.91
2019-06-26T04:28:06.526Z,21.93
2019-06-26T04:30:39.711Z,21.97
2019-06-26T04:33:11.605Z,22.17
2019-06-26T04:35:43.454Z,22.38
2019-06-26T04:38:16.469Z,22.53
2019-06-26T04:40:48.412Z,22.65
2019-06-26T04:43:20.328Z,22.77
2019-06-26T04:45:57.989Z,22.97
2019-06-26T04:48:25.962Z,23.15
2019-06-26T04:50:57.853Z,23.20
2019-06-26T04:53:29.774Z,23.25
2019-06-26T04:56:01.714Z,23.38
2019-06-26T04:58:33.617Z,23.51
2019-06-26T05:01:05.553Z,23.72
2019-06-26T05:03:37.436Z,23.85
2019-06-26T05:06:09.383Z,23.84
2019-06-26T05:08:41.342Z,23.76
2019-06-26T05:11:13.302Z,23.81
2019-06-26T05:13:45.229Z,23.91
2019-06-26T05:16:20.296Z,23.97
2019-06-26T05:18:50.787Z,24.08
2019-06-26T05:21:22.750Z,24.20
2019-06-26T05:23:54.744Z,24.13
2019-06-26T05:26:26.753Z,24.26
2019-06-26T05:28:58.638Z,24.39
2019-06-26T05:31:30.674Z,24.37
2019-06-26T05:34:02.754Z,24.59
2019-06-26T05:36:34.708Z,24.62
2019-06-26T05:39:07.701Z,24.63
2019-06-26T05:41:39.636Z,24.71
2019-06-26T05:44:11.551Z,24.96
2019-06-26T05:46:43.667Z,24.99
2019-06-26T05:49:15.561Z,25.05
2019-06-26T05:51:47.558Z,25.15
2019-06-26T05:54:20.480Z,25.09
2019-06-26T05:56:53.449Z,25.24
2019-06-26T05:59:25.463Z,25.21
2019-06-26T06:01:57.491Z,25.43
2019-06-26T06:04:29.427Z,25.49
2019-06-26T06:07:01.372Z,25.65
2019-06-26T06:09:33.319Z,25.76
2019-06-26T06:12:05.285Z,25.85
2019-06-26T06:14:37.254Z,25.95
2019-06-26T06:17:09.191Z,25.84
2019-06-26T06:19:41.111Z,25.92
2019-06-26T06:22:13.068Z,25.87
2019-06-26T06:24:45.106Z,25.64
2019-06-26T06:27:17.106Z,25.68
2019-06-26T06:29:49.023Z,25.79
2019-06-26T06:32:22.157Z,25.98
2019-06-26T06:34:56.124Z,26.04
2019-06-26T06:37:28.103Z,26.16
2019-06-26T06:40:00.974Z,26.22
2019-06-26T06:45:37.053Z,26.32
2019-06-26T06:48:09.182Z,26.32
2019-06-26T06:50:44.165Z,26.35
2019-06-26T06:53:17.392Z,26.52
2019-06-26T06:55:52.072Z,26.50
2019-06-26T06:58:24.189Z,26.58
2019-06-26T07:00:56.266Z,26.53
2019-06-26T07:03:30.808Z,26.57
2019-06-26T07:09:36.980Z,26.53
2019-06-26T07:12:20.995Z,26.51
2019-06-26T07:14:55.913Z,26.53
2019-06-26T07:17:44.594Z,26.64
2019-06-26T07:20:16.538Z,26.74
2019-06-26T07:22:54.937Z,26.86
2019-06-26T07:25:36.229Z,26.84
2019-06-26T07:28:09.294Z,26.92
2019-06-26T07:30:42.439Z,27.07
2019-06-26T07:58:46.727Z,27.39
2019-06-26T08:01:19.694Z,27.48
2019-06-26T08:03:53.329Z,27.48
2019-06-26T08:06:50.581Z,27.40
2019-06-26T08:09:22.549Z,27.47
2019-06-26T08:11:57.762Z,27.62
2019-06-26T08:14:33.261Z,27.58
2019-06-26T08:17:05.357Z,27.67
2019-06-26T08:19:40.349Z,27.64
2019-06-26T08:22:26.136Z,27.66
2019-06-26T08:28:19.387Z,27.75
2019-06-26T08:31:09.115Z,27.89
2019-06-26T08:33:41.054Z,27.79
2019-06-26T08:36:13.009Z,27.77
2019-06-26T08:38:44.921Z,27.56
2019-06-26T08:41:16.819Z,27.54
2019-06-26T08:43:48.726Z,27.50
2019-06-26T08:46:20.620Z,27.75
2019-06-26T08:48:52.454Z,27.86
2019-06-26T08:51:24.393Z,27.70
2019-06-26T08:53:56.316Z,27.68
2019-06-26T08:56:28.340Z,27.78
2019-06-26T08:59:00.354Z,27.86
2019-06-26T09:01:32.288Z,27.89
2019-06-26T09:04:04.281Z,27.81
2019-06-26T09:06:36.102Z,27.86
2019-06-26T09:09:08.064Z,27.91
2019-06-26T09:11:39.992Z,27.92
2019-06-26T09:14:11.887Z,27.97
2019-06-26T09:16:43.802Z,27.90
2019-06-26T09:19:15.702Z,27.77
2019-06-26T09:21:47.569Z,28.00
2019-06-26T09:24:19.539Z,27.99
2019-06-26T09:26:51.407Z,28.02
2019-06-26T09:29:24.111Z,27.98
2019-06-26T09:31:56.205Z,28.09
2019-06-26T09:34:28.131Z,28.12
2019-06-26T09:37:00.040Z,28.14
2019-06-26T09:39:31.931Z,28.01
2019-06-26T09:42:03.835Z,28.17
2019-06-26T09:44:35.769Z,28.11
2019-06-26T09:47:07.765Z,28.00
2019-06-26T09:49:39.668Z,28.07
2019-06-26T09:52:11.561Z,28.04
2019-06-26T09:54:43.413Z,28.02
2019-06-26T09:57:15.317Z,28.05
2019-06-26T09:59:47.261Z,28.25
2019-06-26T10:02:19.179Z,28.29
2019-06-26T10:04:50.977Z,28.29
2019-06-26T10:07:22.839Z,28.46
2019-06-26T10:09:54.751Z,28.47
2019-06-26T10:12:26.634Z,28.45
2019-06-26T10:14:58.551Z,28.44
2019-06-26T10:17:30.452Z,28.50
2019-06-26T10:20:02.414Z,28.50
2019-06-26T10:22:34.251Z,28.52
2019-06-26T10:25:10.923Z,28.62
2019-06-26T10:27:40.587Z,28.51
2019-06-26T10:30:12.507Z,28.52
2019-06-26T10:32:44.417Z,28.62
2019-06-26T10:35:16.317Z,28.72
2019-06-26T10:37:48.214Z,28.76
2019-06-26T10:40:20.138Z,28.73
2019-06-26T10:42:52.077Z,28.73
2019-06-26T10:45:23.926Z,28.73
2019-06-26T10:47:55.750Z,28.75
2019-06-26T10:50:27.591Z,28.69
2019-06-26T10:52:59.520Z,28.69
2019-06-26T10:55:31.439Z,28.67
2019-06-26T10:58:03.425Z,28.81
2019-06-26T11:00:35.357Z,28.92
2019-06-26T11:03:07.233Z,28.93
2019-06-26T11:05:39.137Z,28.89
2019-06-26T11:08:11.045Z,28.87
2019-06-26T11:10:42.955Z,28.92
2019-06-26T11:13:14.861Z,28.90
2019-06-26T11:15:46.764Z,28.94
2019-06-26T11:18:19.659Z,29.07
2019-06-26T11:20:51.580Z,28.86
2019-06-26T11:23:23.500Z,29.02
2019-06-26T11:25:55.526Z,29.02
2019-06-26T11:28:27.403Z,29.01
2019-06-26T11:30:59.396Z,29.01
2019-06-26T11:33:31.402Z,29.16
2019-06-26T11:36:03.253Z,29.11
2019-06-26T11:38:35.303Z,29.28
2019-06-26T11:41:07.226Z,29.28
2019-06-26T11:43:39.165Z,29.40
2019-06-26T11:46:11.057Z,29.40
2019-06-26T11:48:43.046Z,29.33
2019-06-26T11:51:14.952Z,29.33
2019-06-26T11:53:46.858Z,29.36
2019-06-26T11:56:18.777Z,29.41
2019-06-26T11:58:50.678Z,29.46
2019-06-26T12:01:22.793Z,29.46
2019-06-26T12:03:54.737Z,29.47
2019-06-26T12:06:26.641Z,29.57
2019-06-26T12:08:58.573Z,29.47
2019-06-26T12:11:30.422Z,29.56
2019-06-26T12:14:03.453Z,29.55
2019-06-26T12:16:35.358Z,29.33
2019-06-26T12:19:23.802Z,29.33
2019-06-26T12:21:55.741Z,29.44
2019-06-26T12:24:27.603Z,29.60
2019-06-26T12:26:59.527Z,29.67
2019-06-26T12:29:48.037Z,29.70
2019-06-26T12:32:42.119Z,29.70
2019-06-26T12:35:10.175Z,29.82
2019-06-26T12:37:42.097Z,29.87
2019-06-26T12:40:31.493Z,29.87
2019-06-26T12:43:19.950Z,29.79
2019-06-26T12:45:51.847Z,29.83
2019-06-26T12:48:40.264Z,29.94
2019-06-26T12:51:28.494Z,29.96
2019-06-26T12:54:16.819Z,29.93
2019-06-26T12:56:48.765Z,29.84
2019-06-26T12:59:37.314Z,29.83
2019-06-26T13:02:25.464Z,29.85
2019-06-26T13:05:00.443Z,29.74
2019-06-26T13:07:32.311Z,29.75
2019-06-26T13:10:07.468Z,29.89
2019-06-26T13:12:40.552Z,29.93
2019-06-26T13:15:12.390Z,29.95
2019-06-26T13:17:44.372Z,29.99
2019-06-26T13:20:17.295Z,29.99
2019-06-26T13:22:49.273Z,30.09
2019-06-26T13:25:21.119Z,30.12
2019-06-26T13:27:53.012Z,30.19
2019-06-26T13:30:36.845Z,30.07
2019-06-26T13:33:09.774Z,30.07
2019-06-26T13:35:41.611Z,29.94
2019-06-26T13:38:13.419Z,30.13
2019-06-26T13:40:45.269Z,29.92
2019-06-26T13:43:18.167Z,30.07
2019-06-26T13:45:50.054Z,29.97
2019-06-26T13:48:21.924Z,30.16
2019-06-26T13:51:08.073Z,30.16
2019-06-26T13:53:27.506Z,30.29
2019-06-26T13:55:59.432Z,30.27
2019-06-26T13:58:31.338Z,30.19
2019-06-26T14:01:03.265Z,30.05
2019-06-26T14:03:35.196Z,29.84
2019-06-26T14:06:07.102Z,30.02
2019-06-26T14:08:38.927Z,30.14
2019-06-26T14:11:10.774Z,30.03
2019-06-26T14:13:42.654Z,30.11
2019-06-26T14:16:14.479Z,30.12
2019-06-26T14:18:46.382Z,30.21
2019-06-26T14:21:25.672Z,30.12
2019-06-26T14:23:51.907Z,30.05
2019-06-26T14:26:23.752Z,30.05
2019-06-26T14:28:55.675Z,30.05
2019-06-26T14:31:27.505Z,30.15
2019-06-26T14:33:59.412Z,30.10
2019-06-26T14:36:31.270Z,30.25
2019-06-26T14:39:04.659Z,30.25
2019-06-26T14:41:39.215Z,30.27
2019-06-26T14:44:11.276Z,30.28
2019-06-26T14:46:43.197Z,30.31
2019-06-26T14:49:15.018Z,30.41
2019-06-26T14:51:47.891Z,30.29
2019-06-26T14:54:19.997Z,30.40
2019-06-26T14:56:51.837Z,30.42
2019-06-26T14:59:23.709Z,30.25
2019-06-26T15:01:55.556Z,30.17
2019-06-26T15:04:27.399Z,30.14
2019-06-26T15:06:59.328Z,30.25
2019-06-26T15:09:31.229Z,30.34
2019-06-26T15:12:03.149Z,30.47
2019-06-26T15:14:35.146Z,30.49
2019-06-26T15:17:07.061Z,30.38
2019-06-26T15:19:38.929Z,30.47
2019-06-26T15:22:10.807Z,30.25
2019-06-26T15:24:42.752Z,30.21
2019-06-26T15:27:14.697Z,30.35
2019-06-26T15:29:46.656Z,30.25
2019-06-26T15:32:18.546Z,30.30
2019-06-26T15:34:50.544Z,30.41
2019-06-26T15:37:22.466Z,30.33
2019-06-26T15:39:54.308Z,30.42
2019-06-26T15:42:26.240Z,30.32
2019-06-26T15:44:58.136Z,30.13
2019-06-26T15:47:29.928Z,30.19
2019-06-26T15:50:01.918Z,30.28
2019-06-26T15:52:33.839Z,30.28
2019-06-26T15:55:07.267Z,30.24
2019-06-26T15:57:39.121Z,30.26
2019-06-26T16:00:11.010Z,30.21
2019-06-26T16:02:42.828Z,30.18
2019-06-26T16:05:16.586Z,30.22
2019-06-26T16:07:48.491Z,30.16
2019-06-26T16:10:20.416Z,30.17
2019-06-26T16:12:52.336Z,30.11
2019-06-26T16:15:24.327Z,30.06
2019-06-26T16:18:06.885Z,29.88
2019-06-26T16:20:38.808Z,29.78
2019-06-26T16:23:10.730Z,29.78
2019-06-26T16:25:42.721Z,29.68
2019-06-26T16:28:14.643Z,29.50
2019-06-26T16:30:46.645Z,29.50
2019-06-26T16:33:18.396Z,29.51
2019-06-26T16:35:50.326Z,29.51
2019-06-26T16:38:22.170Z,29.50
2019-06-26T16:40:54.155Z,29.51
2019-06-26T16:43:26.069Z,29.39
2019-06-26T16:45:57.958Z,29.21
2019-06-26T16:48:29.918Z,28.94
2019-06-26T16:51:01.833Z,28.88
2019-06-26T16:53:35.551Z,28.59
2019-06-26T16:56:07.391Z,28.62
2019-06-26T16:58:39.296Z,28.62
2019-06-26T17:01:11.234Z,28.54
2019-06-26T17:03:43.148Z,28.50
2019-06-26T17:06:16.155Z,28.59
2019-06-26T17:08:48.036Z,28.68
2019-06-26T17:11:19.969Z,28.83
2019-06-26T17:13:51.799Z,28.81
2019-06-26T17:16:25.252Z,28.75
2019-06-26T17:18:57.199Z,28.65
2019-06-26T17:21:29.028Z,28.51
2019-06-26T17:24:00.907Z,28.42
2019-06-26T17:26:34.540Z,28.34
2019-06-26T17:29:07.461Z,28.11
2019-06-26T17:31:39.346Z,28.08
2019-06-26T17:34:11.361Z,27.78
2019-06-26T17:36:43.302Z,27.56
2019-06-26T17:39:15.250Z,27.34
2019-06-26T17:41:47.166Z,27.04
2019-06-26T17:44:19.114Z,26.81
2019-06-26T17:46:51.007Z,26.64
2019-06-26T17:49:22.962Z,26.45
2019-06-26T17:51:54.968Z,26.29
2019-06-26T17:54:26.917Z,26.16
2019-06-26T17:56:58.927Z,25.97
2019-06-26T17:59:30.959Z,25.84
2019-06-26T18:02:02.985Z,25.67
2019-06-26T18:04:34.995Z,25.45
2019-06-26T18:07:07.020Z,25.33
2019-06-26T18:09:39.034Z,25.13
2019-06-26T18:12:11.049Z,25.01
2019-06-26T18:14:43.477Z,24.92
2019-06-26T18:17:22.148Z,24.83
2019-06-26T18:19:49.108Z,24.73
2019-06-26T18:22:21.003Z,24.59
2019-06-26T18:24:53.005Z,24.50
2019-06-26T18:27:25.063Z,24.35
2019-06-26T18:29:56.994Z,24.26
2019-06-26T18:32:28.987Z,24.15
2019-06-26T18:35:01.118Z,24.10
2019-06-26T18:37:33.057Z,24.05
2019-06-26T18:40:06.347Z,23.93
2019-06-26T18:42:38.709Z,23.90
2019-06-26T18:45:10.594Z,23.84
2019-06-26T18:47:42.625Z,23.73
2019-06-26T18:50:14.487Z,23.70
2019-06-26T18:52:46.515Z,23.60
2019-06-26T18:55:18.511Z,23.49
2019-06-26T18:57:50.421Z,23.46
2019-06-26T19:00:22.443Z,23.40
2019-06-26T19:02:54.478Z,23.32
2019-06-26T19:05:27.329Z,23.22
2019-06-26T19:07:59.457Z,23.17
2019-06-26T19:10:31.344Z,23.11
2019-06-26T19:13:03.195Z,23.03
2019-06-26T19:15:35.218Z,22.90
2019-06-26T19:18:07.139Z,22.86
2019-06-26T19:20:38.986Z,22.78
2019-06-26T19:23:11.013Z,22.71
2019-06-26T19:25:43.141Z,22.68
2019-06-26T19:28:14.974Z,22.72
2019-06-26T19:30:46.871Z,22.58
2019-06-26T19:33:18.810Z,22.60
2019-06-26T19:35:50.737Z,22.61
2019-06-26T19:38:22.858Z,22.49
2019-06-26T19:40:54.724Z,22.34
2019-06-26T19:43:26.643Z,22.23
2019-06-26T19:45:58.543Z,22.16
2019-06-26T19:48:30.381Z,22.08
2019-06-26T19:51:02.370Z,22.07
2019-06-26T19:53:34.275Z,21.98
2019-06-26T19:56:06.205Z,21.82
2019-06-26T19:58:38.075Z,21.74
2019-06-26T20:01:09.990Z,21.75
2019-06-26T20:03:41.999Z,21.70
2019-06-26T20:06:13.902Z,21.68
2019-06-26T20:08:54.454Z,21.66
2019-06-26T20:11:19.488Z,21.53
2019-06-26T20:13:51.417Z,21.53
2019-06-26T20:16:23.280Z,21.45
2019-06-26T20:18:55.092Z,21.31
2019-06-26T20:21:27.091Z,21.21
2019-06-26T20:24:00.035Z,21.21
2019-06-26T20:26:32.038Z,21.26
2019-06-26T20:29:03.964Z,21.24
2019-06-26T20:31:37.085Z,21.30
2019-06-26T20:34:09.085Z,21.19
2019-06-26T20:36:41.112Z,21.15
2019-06-26T20:39:13.126Z,21.03
2019-06-26T20:41:45.025Z,21.00
2019-06-26T20:44:17.045Z,21.01
2019-06-26T20:46:48.973Z,21.01
2019-06-26T20:49:20.892Z,20.86
2019-06-26T20:51:52.802Z,20.90
2019-06-26T20:54:26.146Z,20.81
2019-06-26T20:56:57.970Z,20.75
2019-06-26T20:59:29.912Z,20.74
2019-06-26T21:02:01.936Z,20.70
2019-06-26T21:04:33.877Z,20.64
2019-06-26T21:07:05.873Z,20.56
2019-06-26T21:09:37.797Z,20.51
2019-06-26T21:12:09.765Z,20.54
2019-06-26T21:14:41.783Z,20.50
2019-06-26T21:17:13.684Z,20.44
2019-06-26T21:19:45.607Z,20.39
2019-06-26T21:22:17.443Z,20.40
2019-06-26T21:24:49.465Z,20.33
2019-06-26T21:27:21.365Z,20.33
2019-06-26T21:29:53.320Z,20.32
2019-06-26T21:32:25.244Z,20.21
2019-06-26T21:34:57.215Z,20.16
2019-06-26T21:37:29.225Z,20.19
2019-06-26T21:40:01.167Z,20.22
2019-06-26T21:42:33.175Z,20.24
2019-06-26T21:45:05.976Z,20.11
2019-06-26T21:47:37.796Z,19.92
2019-06-26T21:50:09.704Z,19.84
2019-06-26T21:52:41.619Z,19.83
2019-06-26T21:55:13.639Z,19.72
2019-06-26T21:58:03.419Z,19.74
2019-06-26T22:00:53.118Z,19.65
2019-06-26T22:03:42.686Z,19.60
2019-06-26T22:06:22.076Z,19.57
2019-06-26T22:09:07.294Z,19.53
2019-06-26T22:11:40.721Z,19.49
2019-06-26T22:14:12.778Z,19.52
